Buoy 51828

sailwx.info

Track history (hours):
 
Tides and Currents Weather Stations Pressure Air Temp Water Temp Dewpoint Dewpoint Depression Visibility Wind Speed Wind Dir Waves Ship Positions

Drifting buoy 51828

Last reported at 2018-Jan-20 14:00 UTC. Time now 2018-Jan-20 15:35 UTC.
Position N 22°32' W 164°11'.

Water temperature 23.8 ° C

Date/timePositionNaut miles runAvg speedWind from/ knotsBaromVisibWave heightAir tempDewpointWater temp
2018-Jan-20 14:00N 22°32' W 164°11'3 3.2 23.8
2018-Jan-20 13:00N 22°35' W 164°10'1 0.2 23.9
2018-Jan-20 08:00N 22°35' W 164°10'2 1.6 23.8
2018-Jan-20 07:00N 22°37' W 164°08'1 0.6 23.9
2018-Jan-20 06:00N 22°37' W 164°08'1 0.8 23.9
2018-Jan-20 05:00N 22°37' W 164°08'1 0.6 24.1
2018-Jan-20 04:00N 22°38' W 164°08'1 0.6 24.0
2018-Jan-20 03:00N 22°38' W 164°08'1 0.6 24.0
2018-Jan-20 02:00N 22°38' W 164°08'0 0.0 24.0
2018-Jan-20 01:00N 22°38' W 164°08'2 0.4 24.0
2018-Jan-19 21:00N 22°39' W 164°06'1 1.3 24.0
2018-Jan-19 20:00N 22°40' W 164°05'1 1.3 24.0
2018-Jan-19 19:00N 22°41' W 164°06'1 0.4 24.0
2018-Jan-19 17:00N 22°42' W 164°07'2 2.4 24.0
2018-Jan-19 16:00N 22°44' W 164°07'0 0.0 23.9
2018-Jan-19 15:00N 22°44' W 164°07'0 0.0 23.9
2018-Jan-19 14:00N 22°44' W 164°07'4 3.6 23.9
2018-Jan-19 13:00N 22°48' W 164°07'0 0.0 24.0
2018-Jan-19 09:00N 22°48' W 164°07'1 1.3 24.1
2018-Jan-19 08:00N 22°49' W 164°06'0 0.0 24.1
2018-Jan-19 07:00N 22°49' W 164°06'2 2.1 23.7
2018-Jan-19 06:00N 22°50' W 164°07'1 1.3 23.7
2018-Jan-19 05:00N 22°51' W 164°06'1 1.1 23.7
2018-Jan-19 04:00N 22°51' W 164°05'2 2.5 23.7
2018-Jan-19 03:00N 22°53' W 164°04'0 0.0 23.6
2018-Jan-19 02:00N 22°53' W 164°04'0 0.0 23.6
2018-Jan-19 01:00N 22°53' W 164°04'3 0.9 23.6
2018-Jan-18 21:00N 22°56' W 164°02'1 1.3 23.4
2018-Jan-18 20:00N 22°57' W 164°01'1 0.8 23.4
2018-Jan-18 19:00N 22°56' W 164°02'1 0.6 23.4
2018-Jan-18 18:00N 22°56' W 164°02'2 1.7 23.4
2018-Jan-18 17:00N 22°56' W 164°01'0 0.0 23.4
2018-Jan-18 16:00N 22°56' W 164°01'1 0.6 23.4
2018-Jan-18 15:00N 22°56' W 164°01'0 0.0 23.4
2018-Jan-18 14:00N 22°56' W 164°01'2 1.6 23.4
2018-Jan-18 13:00N 22°55' W 164°00'0 0.0 23.4
2018-Jan-18 09:00N 22°55' W 164°00'2 2.2 23.4
2018-Jan-18 08:00N 22°55' W 163°58'1 0.6 23.4
2018-Jan-18 07:00N 22°55' W 163°58'1 1.1 23.4
2018-Jan-18 06:00N 22°55' W 163°57'0 0.0 23.4
2018-Jan-18 05:00N 22°55' W 163°57'1 0.6 23.4
2018-Jan-18 04:00N 22°55' W 163°56'1 0.6 23.4
2018-Jan-18 03:00N 22°55' W 163°56'1 1.3 23.5
2018-Jan-18 02:00N 22°56' W 163°55'3 3.0 23.5
2018-Jan-18 01:00N 22°57' W 163°52'0 0.0 23.5
2018-Jan-17 21:00N 22°57' W 163°52'0 0.0 23.4
2018-Jan-17 20:00N 22°57' W 163°52'1 0.6 23.4
2018-Jan-17 19:00N 22°57' W 163°51'0 0.0 23.4
2018-Jan-17 18:00N 22°57' W 163°51'2 1.8 23.4
2018-Jan-17 17:00N 22°58' W 163°49'4 3.7 23.4
2018-Jan-17 16:00N 23°01' W 163°47'0 0.0 23.4
2018-Jan-17 14:00N 23°01' W 163°47'0 0.0 23.4
2018-Jan-17 12:00N 23°01' W 163°47'0 0.0 23.4
2018-Jan-17 09:00N 23°01' W 163°47'1 0.8 23.4
2018-Jan-17 08:00N 23°01' W 163°47'0 0.0 23.4
2018-Jan-17 07:00N 23°01' W 163°47'1 0.8 23.4
2018-Jan-17 06:00N 23°02' W 163°47'1 0.8 23.5
2018-Jan-17 05:00N 23°01' W 163°46'0 0.0 23.5
2018-Jan-17 04:00N 23°01' W 163°46'5 5.3 23.5
2018-Jan-17 03:00N 23°04' W 163°41'0 0.0 23.5
2018-Jan-17 02:00N 23°04' W 163°41'0 0.0 23.6
2018-Jan-17 01:00N 23°04' W 163°41'1 0.1 23.7
2018-Jan-16 21:00N 23°05' W 163°41'0 0.0 23.3
2018-Jan-16 20:00N 23°05' W 163°41'9 0.7 23.3
2018-Jan-16 07:00N 23°13' W 163°38'1 0.6 23.5
2018-Jan-16 06:00N 23°14' W 163°38'1 0.8 23.5
2018-Jan-16 05:00N 23°13' W 163°38'1 1.3 23.6
2018-Jan-16 04:00N 23°14' W 163°37'1 0.6 23.9
2018-Jan-16 03:00N 23°14' W 163°37'0 0.0 24.3
2018-Jan-16 02:00N 23°14' W 163°37'1 1.3 24.8
2018-Jan-16 01:00N 23°15' W 163°37'2 0.8 25.0
2018-Jan-15 22:00N 23°16' W 163°34'1 1.2 24.0
2018-Jan-15 21:00N 23°17' W 163°34'2 1.8 23.5
2018-Jan-15 20:00N 23°16' W 163°32'3 0.7 23.3
2018-Jan-15 15:00N 23°19' W 163°31'1 1.2 23.3
2018-Jan-15 14:00N 23°20' W 163°31'0 0.0 23.3
2018-Jan-15 13:00N 23°20' W 163°31'2 1.9 23.3
2018-Jan-15 12:00N 23°22' W 163°30'1 0.2 23.3
2018-Jan-15 08:00N 23°23' W 163°29'2 1.8 23.4
2018-Jan-15 07:00N 23°23' W 163°28'0 0.0 23.5
2018-Jan-15 06:00N 23°23' W 163°28'1 0.6 23.5
2018-Jan-15 05:00N 23°23' W 163°27'0 0.0 23.6
2018-Jan-15 04:00N 23°23' W 163°27'1 1.3 23.7
2018-Jan-15 03:00N 23°25' W 163°26'0 0.0 23.8
2018-Jan-15 02:00N 23°25' W 163°26'1 0.6 23.8
2018-Jan-15 01:00N 23°25' W 163°26'0 0.0 23.8
2018-Jan-15 00:00N 23°25' W 163°26'4 1.2 23.7
2018-Jan-14 21:00N 23°26' W 163°22'1 0.8 23.4
2018-Jan-14 20:00N 23°26' W 163°22'1 1.2 23.3
2018-Jan-14 19:00N 23°28' W 163°22'1 0.6 23.3
2018-Jan-14 18:00N 23°28' W 163°21'1 1.3 23.3
2018-Jan-14 17:00N 23°28' W 163°20'0 0.0 23.3
2018-Jan-14 16:00N 23°28' W 163°20'1 0.6 23.3
2018-Jan-14 15:00N 23°28' W 163°19'1 0.6 23.3
2018-Jan-14 14:00N 23°29' W 163°19'0 0.0 23.3
2018-Jan-14 13:00N 23°29' W 163°19'3 2.5 23.3
2018-Jan-14 12:00N 23°30' W 163°17'0 0.0 23.3
2018-Jan-14 09:00N 23°30' W 163°17'2 2.1 23.3
2018-Jan-14 08:00N 23°32' W 163°16'2 1.8 23.3
2018-Jan-14 07:00N 23°32' W 163°14'0 0.0 23.3
2018-Jan-14 06:00N 23°32' W 163°14'1 1.1 23.3
2018-Jan-14 05:00N 23°32' W 163°13'0 0.0 23.3
2018-Jan-14 04:00N 23°32' W 163°13'1 0.6 23.4
2018-Jan-14 03:00N 23°32' W 163°12'1 1.3 23.4
2018-Jan-14 02:00N 23°34' W 163°11'0 0.0 23.4
2018-Jan-14 01:00N 23°34' W 163°11'0 0.0 23.5
2018-Jan-14 00:00N 23°34' W 163°11'23 0.7 23.5
2018-Jan-12 15:00N 23°47' W 162°50'1 1.3 23.2
2018-Jan-12 14:00N 23°48' W 162°51'0 0.0 23.2
2018-Jan-12 13:00N 23°48' W 162°51'3 0.7 23.2
2018-Jan-12 09:00N 23°50' W 162°49'1 1.1 23.3
2018-Jan-12 08:00N 23°50' W 162°47'1 0.8 23.3
2018-Jan-12 07:00N 23°50' W 162°47'2 1.8 23.3
2018-Jan-12 06:00N 23°51' W 162°45'0 0.0 23.3
2018-Jan-12 05:00N 23°51' W 162°45'1 1.1 23.3
2018-Jan-12 04:00N 23°51' W 162°44'0 0.0 23.3
2018-Jan-12 03:00N 23°51' W 162°44'2 1.6 23.3
2018-Jan-12 02:00N 23°52' W 162°43'0 0.0 23.4
2018-Jan-12 01:00N 23°52' W 162°43'5 1.0 23.4
2018-Jan-11 20:00N 23°56' W 162°40'2 2.3 23.2
2018-Jan-11 19:00N 23°57' W 162°37'2 2.2 23.2
2018-Jan-11 18:00N 23°57' W 162°40'1 1.3 23.2
2018-Jan-11 17:00N 23°58' W 162°38'1 0.5 23.2
2018-Jan-11 16:00N 23°58' W 162°38'1 0.8 23.2
2018-Jan-11 15:00N 23°58' W 162°37'0 0.0 23.2
2018-Jan-11 14:00N 23°58' W 162°37'0 0.0 23.2
2018-Jan-11 13:00N 23°58' W 162°37'4 1.0 23.2
2018-Jan-11 09:00N 23°59' W 162°33'1 0.3 23.2
2018-Jan-11 07:00N 23°59' W 162°32'2 1.8 23.2
2018-Jan-11 06:00N 23°59' W 162°31'2 2.0 23.3
2018-Jan-11 05:00N 24°01' W 162°29'1 1.2 23.3
2018-Jan-11 04:00N 24°01' W 162°28'1 0.8 23.3
2018-Jan-11 03:00N 24°01' W 162°27'2 2.1 23.3
2018-Jan-11 02:00N 24°02' W 162°26'0 0.0 23.3
2018-Jan-11 01:00N 24°02' W 162°26'3 1.0 23.3
2018-Jan-10 22:00N 24°05' W 162°24'0 0.0 23.3
2018-Jan-10 21:00N 24°05' W 162°24'0 0.0 23.3
2018-Jan-10 20:00N 24°05' W 162°24'1 1.1 23.2
2018-Jan-10 19:00N 24°05' W 162°23'0 0.0 23.2
2018-Jan-10 18:00N 24°05' W 162°23'1 0.8 23.2
2018-Jan-10 17:00N 24°05' W 162°22'1 0.8 23.2
2018-Jan-10 16:00N 24°05' W 162°22'1 0.8 23.2
2018-Jan-10 15:00N 24°05' W 162°21'0 0.0 23.2
2018-Jan-10 14:00N 24°05' W 162°21'   23.2
Track history (hours):
 
Tides and Currents Weather Stations Pressure Air Temp Water Temp Dewpoint Dewpoint Depression Visibility Wind Speed Wind Dir Waves Ship Positions

Drifting buoy 51828

Last reported at 2018-Jan-20 14:00 UTC. Time now 2018-Jan-20 15:35 UTC.
Position N 22°32' W 164°11'.

Water temperature 23.8 ° C

Date/timePositionNaut miles runAvg speedWind from/ knotsBaromVisibWave heightAir tempDewpointWater temp
2018-Jan-20 14:00N 22°32' W 164°11'3 3.2 23.8
2018-Jan-20 13:00N 22°35' W 164°10'1 0.2 23.9
2018-Jan-20 08:00N 22°35' W 164°10'2 1.6 23.8
2018-Jan-20 07:00N 22°37' W 164°08'1 0.6 23.9
2018-Jan-20 06:00N 22°37' W 164°08'1 0.8 23.9
2018-Jan-20 05:00N 22°37' W 164°08'1 0.6 24.1
2018-Jan-20 04:00N 22°38' W 164°08'1 0.6 24.0
2018-Jan-20 03:00N 22°38' W 164°08'1 0.6 24.0
2018-Jan-20 02:00N 22°38' W 164°08'0 0.0 24.0
2018-Jan-20 01:00N 22°38' W 164°08'2 0.4 24.0
2018-Jan-19 21:00N 22°39' W 164°06'1 1.3 24.0
2018-Jan-19 20:00N 22°40' W 164°05'1 1.3 24.0
2018-Jan-19 19:00N 22°41' W 164°06'1 0.4 24.0
2018-Jan-19 17:00N 22°42' W 164°07'2 2.4 24.0
2018-Jan-19 16:00N 22°44' W 164°07'0 0.0 23.9
2018-Jan-19 15:00N 22°44' W 164°07'0 0.0 23.9
2018-Jan-19 14:00N 22°44' W 164°07'4 3.6 23.9
2018-Jan-19 13:00N 22°48' W 164°07'0 0.0 24.0
2018-Jan-19 09:00N 22°48' W 164°07'1 1.3 24.1
2018-Jan-19 08:00N 22°49' W 164°06'0 0.0 24.1
2018-Jan-19 07:00N 22°49' W 164°06'2 2.1 23.7
2018-Jan-19 06:00N 22°50' W 164°07'1 1.3 23.7
2018-Jan-19 05:00N 22°51' W 164°06'1 1.1 23.7
2018-Jan-19 04:00N 22°51' W 164°05'2 2.5 23.7
2018-Jan-19 03:00N 22°53' W 164°04'0 0.0 23.6
2018-Jan-19 02:00N 22°53' W 164°04'0 0.0 23.6
2018-Jan-19 01:00N 22°53' W 164°04'3 0.9 23.6
2018-Jan-18 21:00N 22°56' W 164°02'1 1.3 23.4
2018-Jan-18 20:00N 22°57' W 164°01'1 0.8 23.4
2018-Jan-18 19:00N 22°56' W 164°02'1 0.6 23.4
2018-Jan-18 18:00N 22°56' W 164°02'2 1.7 23.4
2018-Jan-18 17:00N 22°56' W 164°01'0 0.0 23.4
2018-Jan-18 16:00N 22°56' W 164°01'1 0.6 23.4
2018-Jan-18 15:00N 22°56' W 164°01'0 0.0 23.4
2018-Jan-18 14:00N 22°56' W 164°01'2 1.6 23.4
2018-Jan-18 13:00N 22°55' W 164°00'0 0.0 23.4
2018-Jan-18 09:00N 22°55' W 164°00'2 2.2 23.4
2018-Jan-18 08:00N 22°55' W 163°58'1 0.6 23.4
2018-Jan-18 07:00N 22°55' W 163°58'1 1.1 23.4
2018-Jan-18 06:00N 22°55' W 163°57'0 0.0 23.4
2018-Jan-18 05:00N 22°55' W 163°57'1 0.6 23.4
2018-Jan-18 04:00N 22°55' W 163°56'1 0.6 23.4
2018-Jan-18 03:00N 22°55' W 163°56'1 1.3 23.5
2018-Jan-18 02:00N 22°56' W 163°55'3 3.0 23.5
2018-Jan-18 01:00N 22°57' W 163°52'0 0.0 23.5
2018-Jan-17 21:00N 22°57' W 163°52'0 0.0 23.4
2018-Jan-17 20:00N 22°57' W 163°52'1 0.6 23.4
2018-Jan-17 19:00N 22°57' W 163°51'0 0.0 23.4
2018-Jan-17 18:00N 22°57' W 163°51'2 1.8 23.4
2018-Jan-17 17:00N 22°58' W 163°49'4 3.7 23.4
2018-Jan-17 16:00N 23°01' W 163°47'0 0.0 23.4
2018-Jan-17 14:00N 23°01' W 163°47'0 0.0 23.4
2018-Jan-17 12:00N 23°01' W 163°47'0 0.0 23.4
2018-Jan-17 09:00N 23°01' W 163°47'1 0.8 23.4
2018-Jan-17 08:00N 23°01' W 163°47'0 0.0 23.4
2018-Jan-17 07:00N 23°01' W 163°47'1 0.8 23.4
2018-Jan-17 06:00N 23°02' W 163°47'1 0.8 23.5
2018-Jan-17 05:00N 23°01' W 163°46'0 0.0 23.5
2018-Jan-17 04:00N 23°01' W 163°46'5 5.3 23.5
2018-Jan-17 03:00N 23°04' W 163°41'0 0.0 23.5
2018-Jan-17 02:00N 23°04' W 163°41'0 0.0 23.6
2018-Jan-17 01:00N 23°04' W 163°41'1 0.1 23.7
2018-Jan-16 21:00N 23°05' W 163°41'0 0.0 23.3
2018-Jan-16 20:00N 23°05' W 163°41'9 0.7 23.3
2018-Jan-16 07:00N 23°13' W 163°38'1 0.6 23.5
2018-Jan-16 06:00N 23°14' W 163°38'1 0.8 23.5
2018-Jan-16 05:00N 23°13' W 163°38'1 1.3 23.6
2018-Jan-16 04:00N 23°14' W 163°37'1 0.6 23.9
2018-Jan-16 03:00N 23°14' W 163°37'0 0.0 24.3
2018-Jan-16 02:00N 23°14' W 163°37'1 1.3 24.8
2018-Jan-16 01:00N 23°15' W 163°37'2 0.8 25.0
2018-Jan-15 22:00N 23°16' W 163°34'1 1.2 24.0
2018-Jan-15 21:00N 23°17' W 163°34'2 1.8 23.5
2018-Jan-15 20:00N 23°16' W 163°32'3 0.7 23.3
2018-Jan-15 15:00N 23°19' W 163°31'1 1.2 23.3
2018-Jan-15 14:00N 23°20' W 163°31'0 0.0 23.3
2018-Jan-15 13:00N 23°20' W 163°31'2 1.9 23.3
2018-Jan-15 12:00N 23°22' W 163°30'1 0.2 23.3
2018-Jan-15 08:00N 23°23' W 163°29'2 1.8 23.4
2018-Jan-15 07:00N 23°23' W 163°28'0 0.0 23.5
2018-Jan-15 06:00N 23°23' W 163°28'1 0.6 23.5
2018-Jan-15 05:00N 23°23' W 163°27'0 0.0 23.6
2018-Jan-15 04:00N 23°23' W 163°27'1 1.3 23.7
2018-Jan-15 03:00N 23°25' W 163°26'0 0.0 23.8
2018-Jan-15 02:00N 23°25' W 163°26'1 0.6 23.8
2018-Jan-15 01:00N 23°25' W 163°26'0 0.0 23.8
2018-Jan-15 00:00N 23°25' W 163°26'4 1.2 23.7
2018-Jan-14 21:00N 23°26' W 163°22'1 0.8 23.4
2018-Jan-14 20:00N 23°26' W 163°22'1 1.2 23.3
2018-Jan-14 19:00N 23°28' W 163°22'1 0.6 23.3
2018-Jan-14 18:00N 23°28' W 163°21'1 1.3 23.3
2018-Jan-14 17:00N 23°28' W 163°20'0 0.0 23.3
2018-Jan-14 16:00N 23°28' W 163°20'1 0.6 23.3
2018-Jan-14 15:00N 23°28' W 163°19'1 0.6 23.3
2018-Jan-14 14:00N 23°29' W 163°19'0 0.0 23.3
2018-Jan-14 13:00N 23°29' W 163°19'3 2.5 23.3
2018-Jan-14 12:00N 23°30' W 163°17'0 0.0 23.3
2018-Jan-14 09:00N 23°30' W 163°17'2 2.1 23.3
2018-Jan-14 08:00N 23°32' W 163°16'2 1.8 23.3
2018-Jan-14 07:00N 23°32' W 163°14'0 0.0 23.3
2018-Jan-14 06:00N 23°32' W 163°14'1 1.1 23.3
2018-Jan-14 05:00N 23°32' W 163°13'0 0.0 23.3
2018-Jan-14 04:00N 23°32' W 163°13'1 0.6 23.4
2018-Jan-14 03:00N 23°32' W 163°12'1 1.3 23.4
2018-Jan-14 02:00N 23°34' W 163°11'0 0.0 23.4
2018-Jan-14 01:00N 23°34' W 163°11'0 0.0 23.5
2018-Jan-14 00:00N 23°34' W 163°11'23 0.7 23.5
2018-Jan-12 15:00N 23°47' W 162°50'1 1.3 23.2
2018-Jan-12 14:00N 23°48' W 162°51'0 0.0 23.2
2018-Jan-12 13:00N 23°48' W 162°51'3 0.7 23.2
2018-Jan-12 09:00N 23°50' W 162°49'1 1.1 23.3
2018-Jan-12 08:00N 23°50' W 162°47'1 0.8 23.3
2018-Jan-12 07:00N 23°50' W 162°47'2 1.8 23.3
2018-Jan-12 06:00N 23°51' W 162°45'0 0.0 23.3
2018-Jan-12 05:00N 23°51' W 162°45'1 1.1 23.3
2018-Jan-12 04:00N 23°51' W 162°44'0 0.0 23.3
2018-Jan-12 03:00N 23°51' W 162°44'2 1.6 23.3
2018-Jan-12 02:00N 23°52' W 162°43'0 0.0 23.4
2018-Jan-12 01:00N 23°52' W 162°43'5 1.0 23.4
2018-Jan-11 20:00N 23°56' W 162°40'2 2.3 23.2
2018-Jan-11 19:00N 23°57' W 162°37'2 2.2 23.2
2018-Jan-11 18:00N 23°57' W 162°40'1 1.3 23.2
2018-Jan-11 17:00N 23°58' W 162°38'1 0.5 23.2
2018-Jan-11 16:00N 23°58' W 162°38'1 0.8 23.2
2018-Jan-11 15:00N 23°58' W 162°37'0 0.0 23.2
2018-Jan-11 14:00N 23°58' W 162°37'0 0.0 23.2
2018-Jan-11 13:00N 23°58' W 162°37'4 1.0 23.2
2018-Jan-11 09:00N 23°59' W 162°33'1 0.3 23.2
2018-Jan-11 07:00N 23°59' W 162°32'2 1.8 23.2
2018-Jan-11 06:00N 23°59' W 162°31'2 2.0 23.3
2018-Jan-11 05:00N 24°01' W 162°29'1 1.2 23.3
2018-Jan-11 04:00N 24°01' W 162°28'1 0.8 23.3
2018-Jan-11 03:00N 24°01' W 162°27'2 2.1 23.3
2018-Jan-11 02:00N 24°02' W 162°26'0 0.0 23.3
2018-Jan-11 01:00N 24°02' W 162°26'3 1.0 23.3
2018-Jan-10 22:00N 24°05' W 162°24'0 0.0 23.3
2018-Jan-10 21:00N 24°05' W 162°24'0 0.0 23.3
2018-Jan-10 20:00N 24°05' W 162°24'1 1.1 23.2
2018-Jan-10 19:00N 24°05' W 162°23'0 0.0 23.2
2018-Jan-10 18:00N 24°05' W 162°23'1 0.8 23.2
2018-Jan-10 17:00N 24°05' W 162°22'1 0.8 23.2
2018-Jan-10 16:00N 24°05' W 162°22'1 0.8 23.2
2018-Jan-10 15:00N 24°05' W 162°21'0 0.0 23.2
2018-Jan-10 14:00N 24°05' W 162°21'   23.2

Dump ship's entire track history